sensor_id;sensor_type;location;lat;lon;timestamp;pressure;altitude;pressure_sealevel;temperature;humidity
68654;BME280;55636;51.108;13.622;2023-03-23T00:00:45;99550.66;;;12.16;47.19
68654;BME280;55636;51.108;13.622;2023-03-23T00:01:48;99548.44;;;12.18;47.19
68654;BME280;55636;51.108;13.622;2023-03-23T00:02:54;99553.97;;;12.18;47.19
68654;BME280;55636;51.108;13.622;2023-03-23T00:03:58;99537.38;;;12.18;47.27
68654;BME280;55636;51.108;13.622;2023-03-23T00:05:01;99542.91;;;12.18;47.36
68654;BME280;55636;51.108;13.622;2023-03-23T00:06:06;99551.72;;;12.21;47.05
68654;BME280;55636;51.108;13.622;2023-03-23T00:07:09;99540.94;;;12.19;47.40
68654;BME280;55636;51.108;13.622;2023-03-23T00:08:12;99548.13;;;12.20;47.37
68654;BME280;55636;51.108;13.622;2023-03-23T00:09:15;99550.91;;;12.20;47.21
68654;BME280;55636;51.108;13.622;2023-03-23T00:10:18;99542.59;;;12.20;47.11
68654;BME280;55636;51.108;13.622;2023-03-23T00:11:23;99548.66;;;12.22;47.14
68654;BME280;55636;51.108;13.622;2023-03-23T00:12:31;99544.78;;;12.23;47.02
68654;BME280;55636;51.108;13.622;2023-03-23T00:13:37;99540.09;;;12.24;47.07
68654;BME280;55636;51.108;13.622;2023-03-23T00:14:41;99551.16;;;12.24;47.18
68654;BME280;55636;51.108;13.622;2023-03-23T00:15:43;99551.97;;;12.24;47.02
68654;BME280;55636;51.108;13.622;2023-03-23T00:16:46;99546.97;;;12.26;47.04
68654;BME280;55636;51.108;13.622;2023-03-23T00:17:49;99549.75;;;12.26;46.85
68654;BME280;55636;51.108;13.622;2023-03-23T00:18:51;99551.38;;;12.27;47.13
68654;BME280;55636;51.108;13.622;2023-03-23T00:19:55;99549.16;;;12.29;46.75
68654;BME280;55636;51.108;13.622;2023-03-23T00:20:58;99546.94;;;12.31;46.90
68654;BME280;55636;51.108;13.622;2023-03-23T00:22:00;99543.31;;;12.31;46.59
68654;BME280;55636;51.108;13.622;2023-03-23T00:23:03;99542.22;;;12.32;46.46
68654;BME280;55636;51.108;13.622;2023-03-23T00:24:12;99547.44;;;12.33;46.43
68654;BME280;55636;51.108;13.622;2023-03-23T00:25:15;99549.91;;;12.35;46.37
68654;BME280;55636;51.108;13.622;2023-03-23T00:26:19;99546.88;;;12.37;46.40
68654;BME280;55636;51.108;13.622;2023-03-23T00:27:22;99549.34;;;12.38;46.27
68654;BME280;55636;51.108;13.622;2023-03-23T00:28:26;99551.00;;;12.39;46.09
68654;BME280;55636;51.108;13.622;2023-03-23T00:29:29;99549.88;;;12.40;46.22
68654;BME280;55636;51.108;13.622;2023-03-23T00:30:34;99547.66;;;12.42;46.42
68654;BME280;55636;51.108;13.622;2023-03-23T00:31:37;99545.69;;;12.43;46.23
68654;BME280;55636;51.108;13.622;2023-03-23T00:32:39;99544.56;;;12.44;46.07
68654;BME280;55636;51.108;13.622;2023-03-23T00:33:43;99544.28;;;12.45;45.95
68654;BME280;55636;51.108;13.622;2023-03-23T00:34:46;99546.75;;;12.47;45.77
68654;BME280;55636;51.108;13.622;2023-03-23T00:35:51;99538.44;;;12.47;45.53
68654;BME280;55636;51.108;13.622;2023-03-23T00:36:54;99551.72;;;12.50;45.58
68654;BME280;55636;51.108;13.622;2023-03-23T00:37:59;99548.66;;;12.51;45.51
68654;BME280;55636;51.108;13.622;2023-03-23T00:39:03;99542.00;;;12.53;45.30
68654;BME280;55636;51.108;13.622;2023-03-23T00:40:06;99538.94;;;12.54;45.46
68654;BME280;55636;51.108;13.622;2023-03-23T00:41:11;99540.59;;;12.55;45.36
68654;BME280;55636;51.108;13.622;2023-03-23T00:42:15;99537.53;;;12.57;45.39
68654;BME280;55636;51.108;13.622;2023-03-23T00:43:19;99536.41;;;12.58;45.31
68654;BME280;55636;51.108;13.622;2023-03-23T00:44:21;99538.88;;;12.59;45.28
68654;BME280;55636;51.108;13.622;2023-03-23T00:45:26;99530.31;;;12.61;45.20
68654;BME280;55636;51.108;13.622;2023-03-23T00:46:29;99530.00;;;12.62;45.09
68654;BME280;55636;51.108;13.622;2023-03-23T00:47:32;99532.50;;;12.64;45.19
68654;BME280;55636;51.108;13.622;2023-03-23T00:48:38;99526.66;;;12.65;44.99
68654;BME280;55636;51.108;13.622;2023-03-23T00:49:46;99525.50;;;12.66;44.83
68654;BME280;55636;51.108;13.622;2023-03-23T00:50:50;99531.59;;;12.68;44.77
68654;BME280;55636;51.108;13.622;2023-03-23T00:51:56;99534.06;;;12.70;44.95
68654;BME280;55636;51.108;13.622;2023-03-23T00:53:00;99528.22;;;12.72;44.97
68654;BME280;55636;51.108;13.622;2023-03-23T00:54:03;99524.34;;;12.73;44.91
68654;BME280;55636;51.108;13.622;2023-03-23T00:55:07;99522.13;;;12.75;44.82
68654;BME280;55636;51.108;13.622;2023-03-23T00:56:09;99522.94;;;12.75;44.63
68654;BME280;55636;51.108;13.622;2023-03-23T00:57:12;99522.94;;;12.75;44.57
68654;BME280;55636;51.108;13.622;2023-03-23T00:58:15;99527.34;;;12.76;44.36
68654;BME280;55636;51.108;13.622;2023-03-23T00:59:18;99519.59;;;12.78;44.51
68654;BME280;55636;51.108;13.622;2023-03-23T01:00:22;99523.16;;;12.79;44.32
68654;BME280;55636;51.108;13.622;2023-03-23T01:01:25;99510.97;;;12.80;44.56
68654;BME280;55636;51.108;13.622;2023-03-23T01:02:27;99505.13;;;12.81;44.49
68654;BME280;55636;51.108;13.622;2023-03-23T01:03:30;99516.75;;;12.83;44.45
68654;BME280;55636;51.108;13.622;2023-03-23T01:04:33;99518.38;;;12.84;44.52
68654;BME280;55636;51.108;13.622;2023-03-23T01:05:40;99512.84;;;12.84;44.38
68654;BME280;55636;51.108;13.622;2023-03-23T01:06:44;99516.44;;;12.85;44.64
68654;BME280;55636;51.108;13.622;2023-03-23T01:07:46;99510.59;;;12.87;44.80
68654;BME280;55636;51.108;13.622;2023-03-23T01:08:50;99502.28;;;12.87;44.99
68654;BME280;55636;51.108;13.622;2023-03-23T01:09:53;99506.72;;;12.88;44.86
68654;BME280;55636;51.108;13.622;2023-03-23T01:11:02;99500.03;;;12.89;44.79
68654;BME280;55636;51.108;13.622;2023-03-23T01:12:07;99505.56;;;12.89;44.97
68654;BME280;55636;51.108;13.622;2023-03-23T01:13:10;99503.63;;;12.89;45.01
68654;BME280;55636;51.108;13.622;2023-03-23T01:14:14;99500.88;;;12.89;44.82
68654;BME280;55636;51.108;13.622;2023-03-23T01:15:18;99498.09;;;12.89;44.73
68654;BME280;55636;51.108;13.622;2023-03-23T01:16:21;99498.91;;;12.90;44.80
68654;BME280;55636;51.108;13.622;2023-03-23T01:17:24;99498.09;;;12.89;44.89
68654;BME280;55636;51.108;13.622;2023-03-23T01:18:26;99489.78;;;12.89;44.99
68654;BME280;55636;51.108;13.622;2023-03-23T01:19:34;99491.44;;;12.90;45.14
68654;BME280;55636;51.108;13.622;2023-03-23T01:20:37;99479.81;;;12.88;45.15
68654;BME280;55636;51.108;13.622;2023-03-23T01:21:39;99477.84;;;12.89;45.20
68654;BME280;55636;51.108;13.622;2023-03-23T01:22:42;99486.16;;;12.89;45.20
68654;BME280;55636;51.108;13.622;2023-03-23T01:23:45;99481.47;;;12.89;45.31
68654;BME280;55636;51.108;13.622;2023-03-23T01:24:48;99482.59;;;12.88;45.20
68654;BME280;55636;51.108;13.622;2023-03-23T01:25:51;99475.09;;;12.89;45.29
68654;BME280;55636;51.108;13.622;2023-03-23T01:26:56;99475.38;;;12.87;45.20
68654;BME280;55636;51.108;13.622;2023-03-23T01:28:04;99476.22;;;12.88;45.09
68654;BME280;55636;51.108;13.622;2023-03-23T01:29:06;99471.00;;;12.86;45.09
68654;BME280;55636;51.108;13.622;2023-03-23T01:30:11;99477.34;;;12.87;45.10
68654;BME280;55636;51.108;13.622;2023-03-23T01:31:18;99472.91;;;12.86;45.01
68654;BME280;55636;51.108;13.622;2023-03-23T01:32:21;99478.75;;;12.84;45.36
68654;BME280;55636;51.108;13.622;2023-03-23T01:33:28;99468.78;;;12.83;45.48
68654;BME280;55636;51.108;13.622;2023-03-23T01:34:31;99467.97;;;12.82;45.35
68654;BME280;55636;51.108;13.622;2023-03-23T01:35:37;99466.31;;;12.81;45.26
68654;BME280;55636;51.108;13.622;2023-03-23T01:36:41;99466.63;;;12.80;45.12
68654;BME280;55636;51.108;13.622;2023-03-23T01:37:44;99464.97;;;12.79;45.20
68654;BME280;55636;51.108;13.622;2023-03-23T01:38:50;99474.09;;;12.79;45.34
68654;BME280;55636;51.108;13.622;2023-03-23T01:39:55;99463.00;;;12.79;45.44
68654;BME280;55636;51.108;13.622;2023-03-23T01:40:58;99459.44;;;12.79;45.21
68654;BME280;55636;51.108;13.622;2023-03-23T01:42:01;99451.41;;;12.77;45.47
68654;BME280;55636;51.108;13.622;2023-03-23T01:43:10;99459.72;;;12.77;45.23
68654;BME280;55636;51.108;13.622;2023-03-23T01:45:36;99460.03;;;12.76;45.65
68654;BME280;55636;51.108;13.622;2023-03-23T01:46:39;99463.06;;;12.74;45.55
68654;BME280;55636;51.108;13.622;2023-03-23T01:47:43;99458.69;;;12.73;45.42
68654;BME280;55636;51.108;13.622;2023-03-23T01:48:45;99464.22;;;12.73;45.66
68654;BME280;55636;51.108;13.622;2023-03-23T01:49:49;99465.34;;;12.72;45.60
68654;BME280;55636;51.108;13.622;2023-03-23T01:50:59;99460.09;;;12.71;45.52
68654;BME280;55636;51.108;13.622;2023-03-23T01:52:13;99464.78;;;12.70;45.59
68654;BME280;55636;51.108;13.622;2023-03-23T01:53:22;99464.78;;;12.70;45.55
68654;BME280;55636;51.108;13.622;2023-03-23T01:54:27;99452.59;;;12.71;45.51
68654;BME280;55636;51.108;13.622;2023-03-23T01:55:44;99459.56;;;12.68;45.43
68654;BME280;55636;51.108;13.622;2023-03-23T01:56:57;99451.56;;;12.67;45.45
68654;BME280;55636;51.108;13.622;2023-03-23T01:58:02;99459.88;;;12.67;45.52
68654;BME280;55636;51.108;13.622;2023-03-23T01:59:04;99455.75;;;12.64;45.50
68654;BME280;55636;51.108;13.622;2023-03-23T02:00:08;99462.09;;;12.65;45.49
68654;BME280;55636;51.108;13.622;2023-03-23T02:01:20;99456.84;;;12.63;45.47
68654;BME280;55636;51.108;13.622;2023-03-23T02:02:30;99456.03;;;12.63;45.67
68654;BME280;55636;51.108;13.622;2023-03-23T02:03:39;99457.16;;;12.62;45.54
68654;BME280;55636;51.108;13.622;2023-03-23T02:04:43;99456.34;;;12.61;45.39
68654;BME280;55636;51.108;13.622;2023-03-23T02:05:46;99461.03;;;12.61;45.47
68654;BME280;55636;51.108;13.622;2023-03-23T02:06:59;99465.72;;;12.60;45.76
68654;BME280;55636;51.108;13.622;2023-03-23T02:08:07;99461.31;;;12.59;45.47
68654;BME280;55636;51.108;13.622;2023-03-23T02:09:14;99462.41;;;12.58;45.54
68654;BME280;55636;51.108;13.622;2023-03-23T02:10:26;99462.41;;;12.58;45.75
68654;BME280;55636;51.108;13.622;2023-03-23T02:11:29;99454.13;;;12.58;45.68
68654;BME280;55636;51.108;13.622;2023-03-23T02:12:32;99458.00;;;12.57;45.74
68654;BME280;55636;51.108;13.622;2023-03-23T02:13:36;99457.19;;;12.57;45.89
68654;BME280;55636;51.108;13.622;2023-03-23T02:14:39;99461.06;;;12.56;46.03
68654;BME280;55636;51.108;13.622;2023-03-23T02:15:49;99458.28;;;12.56;46.07
68654;BME280;55636;51.108;13.622;2023-03-23T02:18:15;99454.72;;;12.55;45.87
68654;BME280;55636;51.108;13.622;2023-03-23T02:19:39;99452.25;;;12.54;45.67
68654;BME280;55636;51.108;13.622;2023-03-23T02:22:32;99447.81;;;12.53;45.83
68654;BME280;55636;51.108;13.622;2023-03-23T02:26:33;99447.28;;;12.50;46.05
68654;BME280;55636;51.108;13.622;2023-03-23T02:29:18;99446.47;;;12.50;46.01
68654;BME280;55636;51.108;13.622;2023-03-23T02:31:17;99450.34;;;12.49;45.91
68654;BME280;55636;51.108;13.622;2023-03-23T02:34:07;99453.94;;;12.49;45.57
68654;BME280;55636;51.108;13.622;2023-03-23T02:35:35;99449.81;;;12.47;45.61
68654;BME280;55636;51.108;13.622;2023-03-23T02:36:46;99448.69;;;12.48;45.59
68654;BME280;55636;51.108;13.622;2023-03-23T02:37:59;99450.94;;;12.46;45.49
68654;BME280;55636;51.108;13.622;2023-03-23T02:39:10;99449.81;;;12.47;45.50
68654;BME280;55636;51.108;13.622;2023-03-23T02:40:20;99451.75;;;12.46;45.41
68654;BME280;55636;51.108;13.622;2023-03-23T02:41:28;99451.22;;;12.44;45.34
68654;BME280;55636;51.108;13.622;2023-03-23T02:42:33;99446.53;;;12.45;45.60
68654;BME280;55636;51.108;13.622;2023-03-23T02:43:42;99451.22;;;12.44;45.69
68654;BME280;55636;51.108;13.622;2023-03-23T02:44:47;99447.66;;;12.44;45.69
68654;BME280;55636;51.108;13.622;2023-03-23T02:45:51;99444.88;;;12.44;45.58
68654;BME280;55636;51.108;13.622;2023-03-23T02:46:57;99448.44;;;12.44;45.37
68654;BME280;55636;51.108;13.622;2023-03-23T02:48:02;99455.13;;;12.43;45.63
68654;BME280;55636;51.108;13.622;2023-03-23T02:49:11;99449.59;;;12.43;45.59
68654;BME280;55636;51.108;13.622;2023-03-23T02:50:17;99450.72;;;12.42;45.68
68654;BME280;55636;51.108;13.622;2023-03-23T02:51:23;99450.72;;;12.42;45.63
68654;BME280;55636;51.108;13.622;2023-03-23T02:52:29;99454.59;;;12.41;45.67
68654;BME280;55636;51.108;13.622;2023-03-23T02:53:34;99450.72;;;12.42;45.65
68654;BME280;55636;51.108;13.622;2023-03-23T02:54:39;99448.75;;;12.43;45.59
68654;BME280;55636;51.108;13.622;2023-03-23T02:55:45;99450.72;;;12.42;45.54
68654;BME280;55636;51.108;13.622;2023-03-23T02:56:52;99444.06;;;12.43;45.53
68654;BME280;55636;51.108;13.622;2023-03-23T02:58:01;99447.09;;;12.42;45.59
68654;BME280;55636;51.108;13.622;2023-03-23T02:59:04;99440.75;;;12.41;45.53
68654;BME280;55636;51.108;13.622;2023-03-23T03:00:08;99442.69;;;12.41;45.43
68654;BME280;55636;51.108;13.622;2023-03-23T03:02:46;99443.00;;;12.39;45.20
68654;BME280;55636;51.108;13.622;2023-03-23T03:03:49;99432.75;;;12.40;45.33
68654;BME280;55636;51.108;13.622;2023-03-23T03:05:08;99431.94;;;12.39;45.31
68654;BME280;55636;51.108;13.622;2023-03-23T03:06:33;99432.75;;;12.40;45.40
68654;BME280;55636;51.108;13.622;2023-03-23T03:09:40;99431.09;;;12.39;45.31
68654;BME280;55636;51.108;13.622;2023-03-23T03:10:51;99429.44;;;12.38;45.24
68654;BME280;55636;51.108;13.622;2023-03-23T03:12:06;99432.50;;;12.36;45.35
68654;BME280;55636;51.108;13.622;2023-03-23T03:14:44;99429.22;;;12.34;45.55
68654;BME280;55636;51.108;13.622;2023-03-23T03:16:29;99426.44;;;12.34;45.31
68654;BME280;55636;51.108;13.622;2023-03-23T03:17:39;99423.94;;;12.32;45.24
68654;BME280;55636;51.108;13.622;2023-03-23T03:19:58;99430.34;;;12.33;45.24
68654;BME280;55636;51.108;13.622;2023-03-23T03:21:14;99422.31;;;12.31;45.27
68654;BME280;55636;51.108;13.622;2023-03-23T03:22:20;99421.47;;;12.31;45.55
68654;BME280;55636;51.108;13.622;2023-03-23T03:23:25;99419.81;;;12.30;45.30
68654;BME280;55636;51.108;13.622;2023-03-23T03:24:32;99422.59;;;12.30;45.25
68654;BME280;55636;51.108;13.622;2023-03-23T03:25:40;99420.13;;;12.28;45.14
68654;BME280;55636;51.108;13.622;2023-03-23T03:26:57;99415.44;;;12.29;45.20
68654;BME280;55636;51.108;13.622;2023-03-23T03:28:09;99416.25;;;12.29;45.32
68654;BME280;55636;51.108;13.622;2023-03-23T03:29:28;99422.09;;;12.28;45.18
68654;BME280;55636;51.108;13.622;2023-03-23T03:30:35;99417.66;;;12.27;45.21
68654;BME280;55636;51.108;13.622;2023-03-23T03:31:40;99422.38;;;12.26;45.05
68654;BME280;55636;51.108;13.622;2023-03-23T03:32:49;99422.38;;;12.26;45.21
68654;BME280;55636;51.108;13.622;2023-03-23T03:33:57;99425.97;;;12.27;45.16
68654;BME280;55636;51.108;13.622;2023-03-23T03:35:02;99421.53;;;12.26;45.11
68654;BME280;55636;51.108;13.622;2023-03-23T03:36:06;99417.13;;;12.25;45.12
68654;BME280;55636;51.108;13.622;2023-03-23T03:37:14;99413.53;;;12.24;45.11
68654;BME280;55636;51.108;13.622;2023-03-23T03:38:17;99414.34;;;12.25;45.25
68654;BME280;55636;51.108;13.622;2023-03-23T03:39:21;99417.97;;;12.25;45.30
68654;BME280;55636;51.108;13.622;2023-03-23T03:40:23;99419.88;;;12.25;45.11
68654;BME280;55636;51.108;13.622;2023-03-23T03:41:27;99414.06;;;12.26;45.22
68654;BME280;55636;51.108;13.622;2023-03-23T03:42:31;99409.34;;;12.27;45.09
68654;BME280;55636;51.108;13.622;2023-03-23T03:43:34;99413.22;;;12.26;45.27
68654;BME280;55636;51.108;13.622;2023-03-23T03:44:38;99416.84;;;12.26;45.24
68654;BME280;55636;51.108;13.622;2023-03-23T03:45:41;99411.31;;;12.26;45.20
68654;BME280;55636;51.108;13.622;2023-03-23T03:46:45;99421.25;;;12.27;45.05
68654;BME280;55636;51.108;13.622;2023-03-23T03:47:48;99417.34;;;12.28;45.08
68654;BME280;55636;51.108;13.622;2023-03-23T03:48:52;99418.19;;;12.29;45.20
68654;BME280;55636;51.108;13.622;2023-03-23T03:49:55;99411.00;;;12.28;45.13
68654;BME280;55636;51.108;13.622;2023-03-23T03:50:59;99417.34;;;12.28;45.19
68654;BME280;55636;51.108;13.622;2023-03-23T03:52:05;99413.78;;;12.28;45.18
68654;BME280;55636;51.108;13.622;2023-03-23T03:53:14;99420.13;;;12.28;45.20
68654;BME280;55636;51.108;13.622;2023-03-23T03:54:17;99411.81;;;12.28;44.99
68654;BME280;55636;51.108;13.622;2023-03-23T03:55:22;99420.97;;;12.29;45.26
68654;BME280;55636;51.108;13.622;2023-03-23T03:56:25;99416.25;;;12.29;45.21
68654;BME280;55636;51.108;13.622;2023-03-23T03:57:41;99412.38;;;12.30;45.13
68654;BME280;55636;51.108;13.622;2023-03-23T03:58:44;99411.50;;;12.30;45.39
68654;BME280;55636;51.108;13.622;2023-03-23T04:00:33;99414.84;;;12.32;45.32
68654;BME280;55636;51.108;13.622;2023-03-23T04:01:37;99418.41;;;12.32;45.18
68654;BME280;55636;51.108;13.622;2023-03-23T04:02:45;99414.00;;;12.31;45.02
68654;BME280;55636;51.108;13.622;2023-03-23T04:04:00;99420.06;;;12.33;45.04
68654;BME280;55636;51.108;13.622;2023-03-23T04:05:09;99416.50;;;12.33;45.20
68654;BME280;55636;51.108;13.622;2023-03-23T04:06:12;99421.19;;;12.32;44.88
68654;BME280;55636;51.108;13.622;2023-03-23T04:07:15;99421.72;;;12.34;44.98
68654;BME280;55636;51.108;13.622;2023-03-23T04:08:22;99415.38;;;12.34;44.94
68654;BME280;55636;51.108;13.622;2023-03-23T04:09:26;99417.00;;;12.35;44.82
68654;BME280;55636;51.108;13.622;2023-03-23T04:10:30;99417.84;;;12.35;44.99
68654;BME280;55636;51.108;13.622;2023-03-23T04:11:35;99418.66;;;12.36;44.76
68654;BME280;55636;51.108;13.622;2023-03-23T04:12:57;99416.72;;;12.37;45.02
68654;BME280;55636;51.108;13.622;2023-03-23T04:14:24;99412.81;;;12.38;44.79
68654;BME280;55636;51.108;13.622;2023-03-23T04:15:29;99412.53;;;12.39;44.83
68654;BME280;55636;51.108;13.622;2023-03-23T04:16:32;99404.75;;;12.41;44.93
68654;BME280;55636;51.108;13.622;2023-03-23T04:17:38;99405.03;;;12.40;45.10
68654;BME280;55636;51.108;13.622;2023-03-23T04:18:43;99401.16;;;12.41;44.87
68654;BME280;55636;51.108;13.622;2023-03-23T04:19:54;99412.75;;;12.43;45.11
68654;BME280;55636;51.108;13.622;2023-03-23T04:21:08;99404.44;;;12.43;45.16
68654;BME280;55636;51.108;13.622;2023-03-23T04:22:11;99403.31;;;12.44;44.96
68654;BME280;55636;51.108;13.622;2023-03-23T04:23:15;99401.38;;;12.44;45.16
68654;BME280;55636;51.108;13.622;2023-03-23T04:24:25;99401.38;;;12.44;45.04
68654;BME280;55636;51.108;13.622;2023-03-23T04:25:52;99400.25;;;12.45;45.03
68654;BME280;55636;51.108;13.622;2023-03-23T04:27:05;99393.59;;;12.46;44.92
68654;BME280;55636;51.108;13.622;2023-03-23T04:28:08;99389.19;;;12.45;44.94
68654;BME280;55636;51.108;13.622;2023-03-23T04:29:22;99396.06;;;12.48;44.85
68654;BME280;55636;51.108;13.622;2023-03-23T04:30:43;99397.19;;;12.47;44.95
68654;BME280;55636;51.108;13.622;2023-03-23T04:31:46;99399.69;;;12.48;44.91
68654;BME280;55636;51.108;13.622;2023-03-23T04:33:04;99399.69;;;12.48;44.89
68654;BME280;55636;51.108;13.622;2023-03-23T04:34:07;99401.59;;;12.48;45.22
68654;BME280;55636;51.108;13.622;2023-03-23T04:35:18;99402.97;;;12.50;45.07
68654;BME280;55636;51.108;13.622;2023-03-23T04:36:39;99399.38;;;12.50;45.11
68654;BME280;55636;51.108;13.622;2023-03-23T04:38:02;99401.03;;;12.51;45.17
68654;BME280;55636;51.108;13.622;2023-03-23T04:39:05;99401.84;;;12.51;45.24
68654;BME280;55636;51.108;13.622;2023-03-23T04:40:14;99409.03;;;12.53;45.33
68654;BME280;55636;51.108;13.622;2023-03-23T04:41:23;99405.16;;;12.54;45.26
68654;BME280;55636;51.108;13.622;2023-03-23T04:42:37;99405.97;;;12.54;45.23
68654;BME280;55636;51.108;13.622;2023-03-23T04:44:04;99409.28;;;12.56;45.38
68654;BME280;55636;51.108;13.622;2023-03-23T04:45:16;99405.66;;;12.56;45.18
68654;BME280;55636;51.108;13.622;2023-03-23T04:46:26;99410.09;;;12.57;45.13
68654;BME280;55636;51.108;13.622;2023-03-23T04:47:37;99409.28;;;12.56;45.33
68654;BME280;55636;51.108;13.622;2023-03-23T04:48:53;99406.22;;;12.58;45.35
68654;BME280;55636;51.108;13.622;2023-03-23T04:50:02;99389.59;;;12.58;45.45
68654;BME280;55636;51.108;13.622;2023-03-23T04:51:11;99398.72;;;12.58;45.19
68654;BME280;55636;51.108;13.622;2023-03-23T04:52:20;99394.81;;;12.59;45.39
68654;BME280;55636;51.108;13.622;2023-03-23T04:53:29;99391.78;;;12.61;45.39
68654;BME280;55636;51.108;13.622;2023-03-23T04:54:32;99395.41;;;12.61;45.26
68654;BME280;55636;51.108;13.622;2023-03-23T04:55:36;99389.00;;;12.61;45.10
68654;BME280;55636;51.108;13.622;2023-03-23T04:56:41;99389.00;;;12.61;45.10
68654;BME280;55636;51.108;13.622;2023-03-23T04:57:48;99390.66;;;12.62;45.34
68654;BME280;55636;51.108;13.622;2023-03-23T04:59:26;99392.63;;;12.61;45.11
68654;BME280;55636;51.108;13.622;2023-03-23T05:00:38;99383.16;;;12.62;45.26
68654;BME280;55636;51.108;13.622;2023-03-23T05:01:42;99388.72;;;12.62;45.26
68654;BME280;55636;51.108;13.622;2023-03-23T05:03:08;99378.78;;;12.61;45.19
68654;BME280;55636;51.108;13.622;2023-03-23T05:04:11;99379.59;;;12.62;45.30
68654;BME280;55636;51.108;13.622;2023-03-23T05:05:38;99374.84;;;12.62;45.20
68654;BME280;55636;51.108;13.622;2023-03-23T05:06:45;99376.81;;;12.62;45.04
68654;BME280;55636;51.108;13.622;2023-03-23T05:07:54;99379.59;;;12.62;45.07
68654;BME280;55636;51.108;13.622;2023-03-23T05:09:02;99384.81;;;12.63;45.10
68654;BME280;55636;51.108;13.622;2023-03-23T05:10:06;99387.59;;;12.63;45.20
68654;BME280;55636;51.108;13.622;2023-03-23T05:11:09;99393.13;;;12.63;45.32
68654;BME280;55636;51.108;13.622;2023-03-23T05:12:15;99396.22;;;12.62;45.17
68654;BME280;55636;51.108;13.622;2023-03-23T05:13:32;99401.75;;;12.62;45.26
68654;BME280;55636;51.108;13.622;2023-03-23T05:14:35;99389.56;;;12.63;45.09
68654;BME280;55636;51.108;13.622;2023-03-23T05:15:44;99392.31;;;12.63;45.18
68654;BME280;55636;51.108;13.622;2023-03-23T05:16:49;99408.94;;;12.63;45.30
68654;BME280;55636;51.108;13.622;2023-03-23T05:17:53;99409.75;;;12.63;45.33
68654;BME280;55636;51.108;13.622;2023-03-23T05:18:56;99405.06;;;12.64;45.43
68654;BME280;55636;51.108;13.622;2023-03-23T05:20:05;99401.44;;;12.63;45.31
68654;BME280;55636;51.108;13.622;2023-03-23T05:21:16;99402.28;;;12.64;45.29
68654;BME280;55636;51.108;13.622;2023-03-23T05:22:26;99396.75;;;12.64;45.36
68654;BME280;55636;51.108;13.622;2023-03-23T05:23:29;99391.22;;;12.64;45.39
68654;BME280;55636;51.108;13.622;2023-03-23T05:24:40;99392.81;;;12.65;45.65
68654;BME280;55636;51.108;13.622;2023-03-23T05:25:45;99401.13;;;12.65;45.53
68654;BME280;55636;51.108;13.622;2023-03-23T05:26:55;99400.31;;;12.64;45.53
68654;BME280;55636;51.108;13.622;2023-03-23T05:28:04;99393.97;;;12.64;45.65
68654;BME280;55636;51.108;13.622;2023-03-23T05:29:21;99393.13;;;12.63;45.71
68654;BME280;55636;51.108;13.622;2023-03-23T05:30:31;99398.38;;;12.65;45.96
68654;BME280;55636;51.108;13.622;2023-03-23T05:31:34;99395.09;;;12.63;45.83
68654;BME280;55636;51.108;13.622;2023-03-23T05:32:36;99396.75;;;12.64;45.77
68654;BME280;55636;51.108;13.622;2023-03-23T05:34:08;99389.56;;;12.63;45.61
68654;BME280;55636;51.108;13.622;2023-03-23T05:35:19;99391.22;;;12.64;45.78
68654;BME280;55636;51.108;13.622;2023-03-23T05:36:24;99393.97;;;12.64;46.00
68654;BME280;55636;51.108;13.622;2023-03-23T05:37:45;99396.75;;;12.64;45.94
68654;BME280;55636;51.108;13.622;2023-03-23T05:38:48;99398.38;;;12.65;46.09
68654;BME280;55636;51.108;13.622;2023-03-23T05:39:54;99401.13;;;12.65;46.09
68654;BME280;55636;51.108;13.622;2023-03-23T05:41:23;99403.91;;;12.65;45.93
68654;BME280;55636;51.108;13.622;2023-03-23T05:42:27;99398.38;;;12.65;46.09
68654;BME280;55636;51.108;13.622;2023-03-23T05:43:38;99404.75;;;12.65;46.07
68654;BME280;55636;51.108;13.622;2023-03-23T05:44:53;99394.47;;;12.66;46.02
68654;BME280;55636;51.108;13.622;2023-03-23T05:45:56;99389.25;;;12.64;46.07
68654;BME280;55636;51.108;13.622;2023-03-23T05:47:01;99394.78;;;12.64;46.13
68654;BME280;55636;51.108;13.622;2023-03-23T05:48:05;99394.78;;;12.64;46.13
68654;BME280;55636;51.108;13.622;2023-03-23T05:49:07;99400.31;;;12.64;46.35
68654;BME280;55636;51.108;13.622;2023-03-23T05:50:13;99402.28;;;12.64;46.38
68654;BME280;55636;51.108;13.622;2023-03-23T05:51:18;99401.44;;;12.63;46.33
68654;BME280;55636;51.108;13.622;2023-03-23T05:52:21;99409.44;;;12.65;46.09
68654;BME280;55636;51.108;13.622;2023-03-23T05:53:23;99393.97;;;12.64;46.04
68654;BME280;55636;51.108;13.622;2023-03-23T05:54:29;99400.31;;;12.64;46.34
68654;BME280;55636;51.108;13.622;2023-03-23T05:55:32;99397.56;;;12.64;46.22
68654;BME280;55636;51.108;13.622;2023-03-23T05:56:43;99403.91;;;12.65;46.23
68654;BME280;55636;51.108;13.622;2023-03-23T05:57:56;99398.38;;;12.65;46.41
68654;BME280;55636;51.108;13.622;2023-03-23T05:59:08;99392.53;;;12.66;46.32
68654;BME280;55636;51.108;13.622;2023-03-23T06:00:12;99399.72;;;12.67;46.45
68654;BME280;55636;51.108;13.622;2023-03-23T06:01:33;99403.59;;;12.66;46.24
68654;BME280;55636;51.108;13.622;2023-03-23T06:02:35;99406.09;;;12.68;46.24
68654;BME280;55636;51.108;13.622;2023-03-23T06:03:38;99403.59;;;12.66;46.44
68654;BME280;55636;51.108;13.622;2023-03-23T06:04:59;99412.75;;;12.67;46.36
68654;BME280;55636;51.108;13.622;2023-03-23T06:06:05;99406.91;;;12.68;46.45
68654;BME280;55636;51.108;13.622;2023-03-23T06:07:20;99410.50;;;12.69;46.55
68654;BME280;55636;51.108;13.622;2023-03-23T06:08:33;99409.69;;;12.68;46.46
68654;BME280;55636;51.108;13.622;2023-03-23T06:09:39;99407.72;;;12.69;46.59
68654;BME280;55636;51.108;13.622;2023-03-23T06:11:04;99409.38;;;12.70;46.56